Bega, New South Wales

11:26 AM AEDT on January 31, 2015 (GMT +1100)
Wolumla | Change Station
CLOSE
Current Station
Personal Weather Station
Location: Wolumla, NEW SOUTH WALES
Elevation: 495 ft
Nearby Weather Stations

Elev 495 ft 36.83 °S, 149.79 °E | Updated 44 seconds ago

Clear
Clear
63.3 °F
Feels Like 63.3 °F
N
7.0
Wind Variable Wind from West
Gusts 7.0 mph

Today
High -- | Low -- °F
--% Chance of Precip.
Yesterday
High -- | Low -- °F
Precip. -- in
6:14 AM 8:12 PM
Waxing Gibbous, 86% visible
Pressure 29.74 in
Visibility 6.2 miles
Clouds
Dew Point 53 °F
Humidity 70%
Rainfall 0.00 in
Snow Depth Not available.
UV 12.1 out of 12
Pollen Not available.
Air Quality Not available.
Flu Activity Not available.
METAR YMER 310000Z AUTO 28008KT 9999 // NCD 19/12 Q1007

More Conditions Fewer Conditions

Pressure 29.74 in
Visibility 6.2 miles
Clouds
Dew Point 53 °F
Humidity 70%
Rainfall 0.00 in
Snow Depth Not available.
UV 12.1 out of 12
Pollen Not available.
Air Quality Not available.
Flu Activity Not available.
METAR YMER 310000Z AUTO 28008KT 9999 // NCD 19/12 Q1007

More Conditions Fewer Conditions

10-Day Weather Forecast

Almanac

Astronomy

Jan. 31, 2015 Rise Set
Actual Time
Civil Twilight
Nautical Twilight
Astronomical Twilight
Moon
Length of Visible Light
Length of Day
Tomorrow will be .
, % of the Moon is Illuminated

Today's Extremes

Country Highs Country Lows

Community

WunderPhotos

Upload Photos

1,791,941 photos uploaded!

WunderBlogs® & News

Nearby

Air Quality

  Air Quality AQ Index Pollutant
Not available.

Snow Depth

Station Depth Elevation

Earthquake Activity

City Distance Mag. Time & Date
Minimum magnitude displayed is 2.5.

Coastal Water Temperatures

Place Temperature

Nearby Weather Stations